Time;durP1;ratioP1;P1;durP2;ratioP2;P2;SDS_P1;SDS_P2;PMS_P1;PMS_P2;Temp;Humidity;BMP_temperature;BMP_pressure;BME280_temperature;BME280_humidity;BME280_pressure;Samples;Min_cycle;Max_cycle;Signal;HPM_P1;HPM_P2
2022/04/12 00:00:17;;;;;;;7.00;4.72;;;;;;;10.56;50.44;100987.19;5075552;28;20028;-63
2022/04/12 00:02:42;;;;;;;6.95;4.63;;;;;;;10.57;51.09;100981.06;5075404;28;20072;-64
2022/04/12 00:05:11;;;;;;;9.68;4.82;;;;;;;10.55;50.83;100981.97;5074381;28;20044;-64
2022/04/12 00:07:36;;;;;;;6.88;4.65;;;;;;;10.51;50.69;100964.56;5074898;28;20032;-63
2022/04/12 00:10:02;;;;;;;6.88;4.35;;;;;;;10.53;50.53;100968.03;5074039;28;20094;-63
2022/04/12 00:12:27;;;;;;;7.05;4.10;;;;;;;10.51;50.60;100967.19;5075102;28;20103;-63
2022/04/12 00:14:53;;;;;;;6.78;4.40;;;;;;;10.44;50.63;100955.91;5075559;28;20123;-63
2022/04/12 00:20:03;;;;;;;7.78;4.40;;;;;;;10.44;50.63;100956.78;5074761;28;20059;-64
2022/04/12 00:22:28;;;;;;;6.78;4.25;;;;;;;10.41;51.18;100955.94;5075037;28;20437;-64
2022/04/12 00:24:54;;;;;;;6.38;4.25;;;;;;;10.43;51.05;100962.03;5075400;28;20055;-64
2022/04/12 00:27:19;;;;;;;9.05;4.10;;;;;;;10.28;50.83;100936.91;5074874;28;20024;-63
2022/04/12 00:29:45;;;;;;;6.20;4.10;;;;;;;10.41;51.37;100962.03;5074916;28;20040;-63
2022/04/12 00:32:10;;;;;;;6.43;4.40;;;;;;;10.39;51.20;100952.50;5074765;28;20048;-63
2022/04/12 00:34:37;;;;;;;7.95;4.07;;;;;;;10.37;51.33;100954.28;5074943;28;20418;-64
2022/04/12 00:37:02;;;;;;;7.70;4.28;;;;;;;10.35;51.49;100956.91;5075116;28;20449;-62
2022/04/12 00:39:28;;;;;;;8.27;3.92;;;;;;;10.31;51.58;100965.66;5074801;28;20076;-64
2022/04/12 00:41:54;;;;;;;7.82;4.20;;;;;;;10.31;51.21;100955.19;5075016;28;20093;-64
2022/04/12 00:44:19;;;;;;;8.07;4.13;;;;;;;10.35;51.47;100961.25;5074766;28;20096;-64
2022/04/12 00:46:44;;;;;;;6.47;4.25;;;;;;;10.30;51.78;100966.53;5075023;28;20033;-63
2022/04/12 00:49:10;;;;;;;6.53;4.20;;;;;;;10.27;51.62;100958.72;5075167;28;20054;-63
2022/04/12 00:51:35;;;;;;;6.90;4.00;;;;;;;10.21;51.89;100948.34;5075700;28;20390;-63
2022/04/12 00:54:00;;;;;;;7.00;4.30;;;;;;;10.28;51.95;100962.19;5073131;28;20033;-64
2022/04/12 00:56:26;;;;;;;8.02;4.53;;;;;;;10.18;51.99;100948.31;5074891;28;20036;-61
2022/04/12 00:58:51;;;;;;;6.43;3.80;;;;;;;10.19;52.19;100960.56;5074418;28;20090;-62
2022/04/12 01:01:16;;;;;;;9.98;4.28;;;;;;;10.08;52.31;100955.38;5074855;28;20033;-64
2022/04/12 01:03:42;;;;;;;7.95;3.80;;;;;;;10.12;52.60;100970.16;5074856;28;20029;-63
2022/04/12 01:06:07;;;;;;;7.35;4.10;;;;;;;10.09;52.80;100959.72;5074880;28;20036;-62
2022/04/12 01:08:34;;;;;;;9.43;4.35;;;;;;;10.06;52.56;100961.50;5074625;28;20048;-62
2022/04/12 01:11:06;;;;;;;10.45;4.15;;;;;;;10.03;52.50;100949.34;5074209;28;20036;-62
2022/04/12 01:13:32;;;;;;;;;;;;;;;10.06;52.14;100951.03;5074754;28;20028;-62
2022/04/12 01:15:57;;;;;;;6.13;4.10;;;;;;;10.02;52.74;100945.00;5074650;28;19926;-63
2022/04/12 01:18:22;;;;;;;7.40;4.13;;;;;;;9.98;52.87;100945.91;5074925;28;20095;-62
2022/04/12 01:20:48;;;;;;;7.90;4.30;;;;;;;9.98;52.63;100945.91;5074350;28;20032;-63
2022/04/12 01:23:22;;;;;;;8.73;4.20;;;;;;;9.99;53.07;100952.88;5074248;28;20024;-63
2022/04/12 01:25:48;;;;;;;8.02;4.30;;;;;;;9.92;53.59;100961.63;5074513;28;20064;-63
2022/04/12 01:28:13;;;;;;;8.43;4.47;;;;;;;9.88;53.51;100954.69;5074645;28;20071;-63
2022/04/12 01:30:39;;;;;;;7.00;4.30;;;;;;;9.84;53.54;100946.91;5074578;28;20116;-63
2022/04/12 01:33:04;;;;;;;6.70;3.88;;;;;;;9.82;53.54;100949.53;5077902;28;20036;-62
2022/04/12 01:35:30;;;;;;;7.32;4.60;;;;;;;9.76;53.74;100942.59;5078122;28;20033;-63
2022/04/12 01:37:55;;;;;;;7.55;4.85;;;;;;;9.79;54.07;100936.50;5078104;28;20033;-62
2022/04/12 01:40:21;;;;;;;8.50;4.57;;;;;;;9.73;54.08;100932.16;5078022;28;20050;-62
2022/04/12 01:42:46;;;;;;;7.97;4.35;;;;;;;9.69;54.04;100940.94;5078191;28;20028;-62
2022/04/12 01:45:12;;;;;;;8.82;4.25;;;;;;;9.61;54.11;100923.56;5078128;28;20039;-62
2022/04/12 01:47:37;;;;;;;8.00;4.70;;;;;;;9.73;54.20;100941.75;5078290;28;20573;-63
2022/04/12 01:50:03;;;;;;;7.78;4.45;;;;;;;9.66;54.67;100945.31;5078416;28;20044;-63
2022/04/12 01:52:29;;;;;;;10.27;4.53;;;;;;;9.72;54.47;100942.63;5077936;28;20039;-62
2022/04/12 01:54:54;;;;;;;8.10;4.40;;;;;;;9.61;54.60;100937.50;5077350;28;20359;-62
2022/04/12 01:57:19;;;;;;;7.60;4.43;;;;;;;9.51;54.72;100916.72;5077887;28;20031;-62
2022/04/12 01:59:44;;;;;;;5.90;4.22;;;;;;;9.56;54.92;100925.34;5077637;28;20079;-63
2022/04/12 02:02:10;;;;;;;7.97;4.47;;;;;;;9.51;55.16;100928.03;5077878;28;20032;-63
2022/04/12 02:04:35;;;;;;;8.43;4.53;;;;;;;9.49;55.27;100927.16;5077793;28;20039;-63
2022/04/12 02:07:00;;;;;;;7.75;4.38;;;;;;;9.49;55.46;100924.56;5077793;28;20116;-62
2022/04/12 02:09:26;;;;;;;8.48;4.18;;;;;;;9.49;55.32;100931.53;5078121;28;20123;-62
2022/04/12 02:11:53;;;;;;;8.93;4.35;;;;;;;9.50;55.56;100941.97;5077515;28;20036;-63
2022/04/12 02:14:18;;;;;;;10.00;4.75;;;;;;;9.41;55.99;100937.66;5076920;28;20344;-63
2022/04/12 02:16:44;;;;;;;6.80;4.78;;;;;;;9.45;56.10;100937.63;5077689;28;20043;-62
2022/04/12 02:19:09;;;;;;;6.22;4.28;;;;;;;9.37;55.91;100935.94;5077564;28;20036;-63
2022/04/12 02:21:34;;;;;;;9.13;3.90;;;;;;;9.33;55.95;100929.03;5077293;28;20099;-62
2022/04/12 02:23:59;;;;;;;5.95;4.20;;;;;;;9.36;56.36;100928.09;5077143;28;20029;-63
2022/04/12 02:26:25;;;;;;;8.32;4.63;;;;;;;9.30;56.25;100928.16;5077191;28;20032;-62
2022/04/12 02:28:50;;;;;;;7.72;4.57;;;;;;;9.33;56.33;100936.00;5077170;28;20043;-63
2022/04/12 02:31:15;;;;;;;8.48;4.85;;;;;;;9.28;56.46;100935.16;5077065;28;20045;-63
2022/04/12 02:33:40;;;;;;;8.93;4.28;;;;;;;9.26;56.80;100926.44;5077243;28;20372;-62
2022/04/12 02:36:06;;;;;;;8.75;4.80;;;;;;;9.25;57.04;100922.97;5076943;28;20519;-63
2022/04/12 02:38:31;;;;;;;6.93;4.60;;;;;;;9.24;56.94;100928.19;5077066;28;20032;-62
2022/04/12 02:40:56;;;;;;;11.60;4.60;;;;;;;9.21;57.17;100923.00;5077533;28;20081;-63
2022/04/12 02:43:21;;;;;;;8.50;4.72;;;;;;;9.19;57.16;100922.13;5076089;28;20028;-64
2022/04/12 02:45:47;;;;;;;8.82;4.57;;;;;;;9.11;57.02;100914.38;5077194;28;20074;-63
2022/04/12 02:48:12;;;;;;;7.18;4.20;;;;;;;9.10;57.79;100917.84;5077093;28;20039;-63
2022/04/12 02:50:38;;;;;;;9.05;4.78;;;;;;;9.09;57.43;100913.50;5077057;28;20036;-63
2022/04/12 02:53:04;;;;;;;6.65;4.20;;;;;;;9.07;57.79;100904.81;5077110;28;20032;-63
2022/04/12 02:55:29;;;;;;;9.25;5.00;;;;;;;9.03;57.95;100909.19;5076878;28;20039;-62
2022/04/12 02:57:54;;;;;;;7.43;4.25;;;;;;;9.00;57.88;100910.97;5076825;28;20035;-62
2022/04/12 03:00:20;;;;;;;9.68;4.63;;;;;;;9.02;58.03;100902.22;5076698;28;20409;-63
2022/04/12 03:02:45;;;;;;;8.93;4.60;;;;;;;8.98;58.33;100910.09;5076673;28;20477;-62
2022/04/12 03:05:10;;;;;;;7.32;4.75;;;;;;;8.99;58.59;100906.63;5076745;28;20115;-62
2022/04/12 03:07:36;;;;;;;9.43;4.45;;;;;;;8.95;58.49;100895.31;5076716;28;20137;-63
2022/04/12 03:10:02;;;;;;;8.00;4.70;;;;;;;8.96;58.70;100898.81;5076401;28;20060;-62
2022/04/12 03:12:27;;;;;;;8.77;4.90;;;;;;;8.80;58.93;100871.06;5076381;28;20136;-62
2022/04/12 03:14:52;;;;;;;7.05;4.60;;;;;;;8.86;58.88;100884.06;5076591;28;20325;-64
2022/04/12 03:17:18;;;;;;;6.28;4.50;;;;;;;8.90;59.22;100891.88;5076494;28;20028;-62
2022/04/12 03:19:43;;;;;;;8.07;5.00;;;;;;;8.85;59.27;100892.75;5076447;28;20398;-62
2022/04/12 03:22:08;;;;;;;10.70;4.78;;;;;;;8.85;59.42;100877.97;5076396;28;20035;-62
2022/04/12 03:24:34;;;;;;;7.57;4.50;;;;;;;8.83;59.24;100869.28;5076060;28;20325;-62
2022/04/12 03:26:59;;;;;;;11.10;4.72;;;;;;;8.83;59.54;100871.88;5076254;28;20040;-64
2022/04/12 03:29:27;;;;;;;11.07;5.43;;;;;;;8.79;59.55;100869.34;5076168;28;20423;-63
2022/04/12 03:31:52;;;;;;;7.70;4.80;;;;;;;8.83;59.76;100874.50;5076358;28;20439;-63
2022/04/12 03:34:18;;;;;;;10.93;4.70;;;;;;;8.82;59.71;100869.31;5076272;28;20044;-62
2022/04/12 03:36:43;;;;;;;8.98;5.00;;;;;;;8.76;59.97;100856.28;5075771;28;20028;-62
2022/04/12 03:39:11;;;;;;;11.98;5.60;;;;;;;8.75;60.24;100871.09;5075792;28;20487;-62
2022/04/12 03:41:36;;;;;;;7.95;5.25;;;;;;;8.78;60.44;100880.63;5075753;28;20353;-62
2022/04/12 03:44:03;;;;;;;8.23;4.68;;;;;;;8.73;60.58;100886.75;5075807;28;20024;-63
2022/04/12 03:46:29;;;;;;;8.57;5.05;;;;;;;8.63;60.74;100885.06;5075459;28;20546;-62
2022/04/12 03:48:54;;;;;;;7.07;4.97;;;;;;;8.62;61.03;100880.72;5075938;28;20070;-62
2022/04/12 03:51:19;;;;;;;10.65;5.82;;;;;;;8.61;60.93;100875.50;5075618;28;20093;-62
2022/04/12 03:53:44;;;;;;;10.35;5.25;;;;;;;8.56;60.73;100859.00;5075640;28;20351;-62
2022/04/12 03:56:10;;;;;;;10.40;5.30;;;;;;;8.62;60.54;100854.63;5075768;28;20041;-62
2022/04/12 03:58:37;;;;;;;7.72;4.78;;;;;;;8.56;61.15;100844.22;5075847;28;20028;-62
2022/04/12 04:01:02;;;;;;;9.50;4.95;;;;;;;8.58;61.16;100854.66;5075448;28;20044;-62
2022/04/12 04:03:28;;;;;;;9.93;5.40;;;;;;;8.58;61.28;100862.47;5075556;28;20320;-62
2022/04/12 04:05:53;;;;;;;10.30;5.47;;;;;;;8.59;61.14;100866.81;5075248;28;20363;-62
2022/04/12 04:08:18;;;;;;;7.68;5.00;;;;;;;8.43;61.48;100826.91;5075579;28;20044;-62
2022/04/12 04:10:44;;;;;;;8.40;5.43;;;;;;;8.63;61.33;100858.13;5075575;28;20348;-62
2022/04/12 04:13:09;;;;;;;10.23;5.45;;;;;;;8.64;61.41;100862.47;5074432;28;20039;-62
2022/04/12 04:15:45;;;;;;;9.27;5.28;;;;;;;8.65;61.39;100859.84;5075352;28;20037;-62
2022/04/12 04:18:12;;;;;;;9.88;5.38;;;;;;;8.67;61.57;100867.63;5075375;28;20040;-63
2022/04/12 04:20:37;;;;;;;9.15;5.43;;;;;;;8.64;61.49;100860.72;5075244;28;20082;-63
2022/04/12 04:23:03;;;;;;;8.98;6.00;;;;;;;8.66;61.46;100864.16;5074550;28;20040;-62
2022/04/12 04:25:28;;;;;;;10.57;5.40;;;;;;;8.65;61.67;100845.94;5074997;28;20021;-63
2022/04/12 04:27:54;;;;;;;9.63;5.43;;;;;;;8.63;61.71;100848.56;5075086;28;20060;-63
2022/04/12 04:30:20;;;;;;;8.30;5.50;;;;;;;8.63;61.90;100850.28;5075221;28;20111;-62
2022/04/12 04:32:46;;;;;;;9.50;5.10;;;;;;;8.57;61.89;100863.34;5074971;28;20048;-62
2022/04/12 04:35:12;;;;;;;10.57;5.43;;;;;;;8.55;61.75;100860.75;5072776;28;20341;-63
2022/04/12 04:37:48;;;;;;;9.60;5.18;;;;;;;8.58;61.71;100859.88;5056005;28;20048;-62
2022/04/12 04:40:15;;;;;;;7.80;5.43;;;;;;;8.53;62.34;100861.63;5055086;28;20517;-62
2022/04/12 04:42:42;;;;;;;10.15;5.88;;;;;;;8.49;62.52;100863.38;5055151;28;20059;-63
2022/04/12 04:45:08;;;;;;;7.40;5.70;;;;;;;8.49;62.47;100870.31;5054483;28;20036;-61
2022/04/12 04:47:34;;;;;;;9.25;5.55;;;;;;;8.42;62.61;100877.34;5054836;28;20025;-62
2022/04/12 04:50:01;;;;;;;10.23;5.45;;;;;;;8.42;63.21;100894.72;5054775;28;20400;-61
2022/04/12 04:52:26;;;;;;;8.52;5.80;;;;;;;8.40;63.10;100899.94;5054708;28;20040;-61
2022/04/12 04:54:51;;;;;;;11.18;6.30;;;;;;;8.30;63.56;100904.28;5055043;28;20029;-62
2022/04/12 04:57:16;;;;;;;10.30;5.97;;;;;;;8.28;64.79;100903.44;5054708;28;20039;-62
2022/04/12 04:59:41;;;;;;;9.70;5.32;;;;;;;8.15;65.21;100893.88;5054835;28;20041;-62
2022/04/12 05:02:07;;;;;;;11.52;6.15;;;;;;;8.20;64.52;100905.19;5054694;28;20047;-62
2022/04/12 05:04:32;;;;;;;10.55;5.43;;;;;;;8.20;64.25;100904.31;5054839;28;20029;-63
2022/04/12 05:06:57;;;;;;;8.85;5.63;;;;;;;8.21;65.49;100899.09;5056172;28;20044;-62
2022/04/12 05:09:22;;;;;;;13.32;5.97;;;;;;;8.21;65.43;100888.66;5058669;28;20401;-62
2022/04/12 05:11:48;;;;;;;11.38;6.30;;;;;;;8.25;64.31;100884.31;5058770;28;20028;-63
2022/04/12 05:14:13;;;;;;;11.60;6.65;;;;;;;8.29;64.15;100880.84;5058736;28;20119;-62
2022/04/12 05:16:38;;;;;;;12.27;5.78;;;;;;;8.41;63.98;100877.34;5058676;28;20032;-62
2022/04/12 05:19:04;;;;;;;8.35;5.82;;;;;;;8.48;63.69;100879.94;5058799;28;20112;-63
2022/04/12 05:21:29;;;;;;;8.88;6.07;;;;;;;8.60;63.47;100892.91;5058719;28;20093;-63
2022/04/12 05:23:54;;;;;;;9.20;6.18;;;;;;;8.65;63.17;100885.06;5058616;28;20033;-62
2022/04/12 05:26:20;;;;;;;12.27;5.68;;;;;;;8.72;62.94;100891.97;5067469;28;20066;-62
2022/04/12 05:28:45;;;;;;;13.30;6.30;;;;;;;8.72;62.91;100887.63;5062381;28;20045;-63
2022/04/12 05:31:10;;;;;;;10.23;6.00;;;;;;;8.79;62.68;100885.00;5058664;28;20059;-62
2022/04/12 05:33:35;;;;;;;11.90;6.10;;;;;;;8.80;62.57;100873.69;5058291;28;20044;-63
2022/04/12 05:36:01;;;;;;;10.57;6.07;;;;;;;8.85;62.43;100870.13;5058254;28;20029;-63
2022/04/12 05:38:26;;;;;;;10.07;5.82;;;;;;;8.84;62.46;100875.38;5058089;28;20454;-62
2022/04/12 05:40:51;;;;;;;12.13;6.03;;;;;;;8.87;62.48;100885.78;5057931;28;20044;-63
2022/04/12 05:43:16;;;;;;;14.65;6.28;;;;;;;8.84;62.71;100884.06;5058194;28;20025;-62
2022/04/12 05:45:42;;;;;;;15.68;6.60;;;;;;;8.81;63.01;100871.06;5058492;28;20428;-64
2022/04/12 05:48:07;;;;;;;11.68;7.05;;;;;;;8.84;62.85;100878.84;5058021;28;20040;-63
2022/04/12 05:50:32;;;;;;;11.43;6.32;;;;;;;8.82;62.70;100882.38;5058165;28;20033;-62
2022/04/12 05:52:57;;;;;;;14.57;6.47;;;;;;;8.86;62.99;100897.97;5057913;28;20115;-63
2022/04/12 05:55:24;;;;;;;16.48;6.53;;;;;;;8.93;63.09;100901.44;5057976;28;20447;-64
2022/04/12 05:57:56;;;;;;;11.90;6.38;;;;;;;8.95;62.72;100899.69;5057996;28;20371;-67
2022/04/12 06:00:22;;;;;;;9.68;6.43;;;;;;;8.96;62.99;100886.63;5058074;28;20052;-64
2022/04/12 06:02:49;;;;;;;11.10;6.13;;;;;;;9.13;62.17;100886.50;5057463;28;20365;-63
2022/04/12 06:05:15;;;;;;;9.98;5.93;;;;;;;9.33;61.81;100876.78;5057737;28;20036;-63
2022/04/12 06:07:41;;;;;;;8.38;5.90;;;;;;;9.46;61.03;100885.38;5058272;28;20170;-62
2022/04/12 06:10:09;;;;;;;12.85;6.57;;;;;;;9.55;60.73;100890.53;5057805;28;20119;-63
2022/04/12 06:12:35;;;;;;;9.75;6.85;;;;;;;9.78;60.21;100885.97;5057870;28;20329;-63
2022/04/12 06:15:00;;;;;;;13.38;6.65;;;;;;;10.54;58.34;100880.81;5060364;28;20077;-63
2022/04/12 06:17:29;;;;;;;10.30;6.20;;;;;;;11.07;56.10;100874.84;5056586;28;20328;-62
2022/04/12 06:20:05;;;;;;;11.13;6.28;;;;;;;11.29;55.32;100878.84;5076745;28;20028;-62
2022/04/12 06:22:31;;;;;;;12.20;6.40;;;;;;;11.50;55.13;100882.88;5077162;28;20459;-62
2022/04/12 06:24:57;;;;;;;11.20;6.40;;;;;;;11.57;54.45;100886.28;5077662;28;20029;-63
2022/04/12 06:27:33;;;;;;;10.65;6.15;;;;;;;11.65;55.08;100889.59;5077738;28;20400;-63
2022/04/12 06:30:07;;;;;;;9.77;6.28;;;;;;;11.44;55.11;100882.97;5076676;28;20040;-63
2022/04/12 06:32:34;;;;;;;9.65;6.43;;;;;;;11.31;55.56;100886.69;5059541;28;20049;-63
2022/04/12 06:34:59;;;;;;;9.82;6.50;;;;;;;11.21;55.36;100888.59;5065498;28;20036;-63
2022/04/12 06:37:26;;;;;;;12.30;7.22;;;;;;;11.04;55.77;100891.47;5077179;28;20097;-62
2022/04/12 06:39:52;;;;;;;9.20;6.10;;;;;;;11.21;55.58;100903.44;5077224;28;20032;-62
2022/04/12 06:42:17;;;;;;;12.50;6.38;;;;;;;11.27;55.82;100898.09;5077382;28;20036;-62
2022/04/12 06:44:43;;;;;;;10.45;6.28;;;;;;;11.22;55.31;100890.31;5076940;28;20106;-63
2022/04/12 06:47:08;;;;;;;10.38;6.45;;;;;;;11.14;55.58;100890.41;5077112;28;20363;-63
2022/04/12 06:49:33;;;;;;;9.48;6.68;;;;;;;11.18;55.89;100879.91;5077141;28;20021;-62
2022/04/12 06:51:59;;;;;;;12.90;6.43;;;;;;;11.26;55.56;100867.53;5076811;28;20115;-61
2022/04/12 06:54:25;;;;;;;11.50;6.63;;;;;;;11.35;55.11;100860.41;5077080;28;20340;-61
2022/04/12 06:56:51;;;;;;;9.77;6.03;;;;;;;11.57;55.13;100871.41;5076892;28;20028;-61
2022/04/12 06:59:16;;;;;;;9.88;5.85;;;;;;;11.99;54.14;100876.78;5076731;28;20035;-62
2022/04/12 07:01:41;;;;;;;9.95;5.78;;;;;;;12.57;51.92;100879.13;5076547;28;20428;-62
2022/04/12 07:04:07;;;;;;;13.40;6.40;;;;;;;13.02;51.13;100871.13;5076715;28;20032;-63
2022/04/12 07:06:32;;;;;;;9.40;5.95;;;;;;;13.21;49.74;100873.34;5076701;28;20351;-62
2022/04/12 07:08:57;;;;;;;11.30;5.70;;;;;;;13.24;49.40;100861.91;5076588;28;20132;-63
2022/04/12 07:11:22;;;;;;;10.05;5.40;;;;;;;13.36;49.25;100858.09;5076817;28;20020;-64
2022/04/12 07:13:48;;;;;;;7.80;5.55;;;;;;;13.39;49.36;100858.88;5077194;28;20036;-62
2022/04/12 07:16:13;;;;;;;7.38;5.28;;;;;;;13.45;48.94;100856.13;5076220;28;20033;-63
2022/04/12 07:18:38;;;;;;;9.60;5.50;;;;;;;13.40;49.66;100868.50;5076353;28;20450;-62
2022/04/12 07:21:04;;;;;;;9.57;5.47;;;;;;;13.29;49.50;100880.19;5076056;28;20105;-62
2022/04/12 07:23:29;;;;;;;9.18;5.25;;;;;;;13.31;50.18;100879.25;5076261;28;20024;-62
2022/04/12 07:25:54;;;;;;;7.68;5.40;;;;;;;13.33;49.68;100871.34;5076346;28;20028;-60
2022/04/12 07:28:20;;;;;;;7.80;5.18;;;;;;;13.41;49.75;100864.97;5075859;28;20040;-61
2022/04/12 07:30:45;;;;;;;11.25;5.60;;;;;;;13.45;49.62;100865.78;5075533;28;20028;-63
2022/04/12 07:33:10;;;;;;;8.77;5.10;;;;;;;13.54;49.21;100860.25;5076138;28;20094;-63
2022/04/12 07:35:35;;;;;;;8.15;5.20;;;;;;;13.61;49.98;100866.25;5075959;28;20415;-64
2022/04/12 07:38:01;;;;;;;9.20;4.80;;;;;;;13.73;48.95;100865.91;5075785;28;20028;-62
2022/04/12 07:40:26;;;;;;;10.80;5.10;;;;;;;13.73;48.95;100863.28;5075803;28;20403;-62
2022/04/12 07:42:51;;;;;;;8.93;4.85;;;;;;;13.85;49.11;100870.88;5075706;28;20089;-63
2022/04/12 07:45:17;;;;;;;8.75;4.78;;;;;;;14.05;48.13;100863.28;5075749;28;20451;-62
2022/04/12 07:47:42;;;;;;;8.88;5.40;;;;;;;14.06;48.60;100870.28;5075189;28;20043;-62
2022/04/12 07:50:07;;;;;;;9.40;4.82;;;;;;;14.20;48.48;100875.16;5075934;28;20075;-62
2022/04/12 07:52:33;;;;;;;10.77;5.22;;;;;;;14.28;48.53;100867.94;5075655;28;20033;-62
2022/04/12 07:54:58;;;;;;;8.73;5.25;;;;;;;14.39;47.34;100862.34;5075894;28;20033;-61
2022/04/12 07:57:27;;;;;;;7.70;4.50;;;;;;;14.43;47.22;100861.38;5075419;28;20031;-62
2022/04/12 07:59:52;;;;;;;10.95;4.65;;;;;;;14.57;47.45;100869.75;5075637;28;20025;-62
2022/04/12 08:02:17;;;;;;;8.23;5.07;;;;;;;14.79;47.77;100864.69;5075387;28;20086;-61
2022/04/12 08:04:43;;;;;;;8.00;4.65;;;;;;;14.94;46.95;100866.88;5075332;28;20033;-62
2022/04/12 08:07:08;;;;;;;6.88;4.20;;;;;;;15.12;46.68;100871.56;5075656;28;20036;-62
2022/04/12 08:09:34;;;;;;;9.27;4.60;;;;;;;15.19;45.85;100865.19;5075398;28;20032;-62
2022/04/12 08:11:59;;;;;;;12.32;4.60;;;;;;;15.21;45.92;100871.28;5075170;28;20050;-62
2022/04/12 08:14:25;;;;;;;7.18;4.53;;;;;;;15.17;45.59;100858.25;5075514;28;20486;-62
2022/04/12 08:16:52;;;;;;;9.32;4.50;;;;;;;15.20;46.13;100863.44;5074905;28;20028;-61
2022/04/12 08:19:17;;;;;;;11.50;4.57;;;;;;;15.23;45.74;100865.97;5075568;28;20028;-62
2022/04/12 08:21:43;;;;;;;7.28;4.30;;;;;;;15.35;46.25;100869.97;5075095;28;20043;-61
2022/04/12 08:24:08;;;;;;;9.50;4.97;;;;;;;15.50;46.61;100877.38;5075332;28;20068;-62
2022/04/12 08:26:34;;;;;;;6.47;4.50;;;;;;;15.70;45.36;100874.97;5075093;28;20039;-62
2022/04/12 08:28:59;;;;;;;7.05;4.47;;;;;;;15.93;44.73;100868.91;5074967;28;20028;-62
2022/04/12 08:31:24;;;;;;;7.30;4.03;;;;;;;16.16;44.54;100857.50;5075419;28;20056;-62
2022/04/12 08:33:50;;;;;;;5.50;3.85;;;;;;;16.34;43.77;100872.69;5074955;28;20029;-62
2022/04/12 08:36:16;;;;;;;6.68;3.90;;;;;;;16.51;43.80;100865.00;5074909;28;20043;-62
2022/04/12 08:38:43;;;;;;;9.05;3.70;;;;;;;16.66;44.35;100864.44;5075242;28;20044;-62
2022/04/12 08:41:09;;;;;;;7.07;3.42;;;;;;;16.67;43.42;100860.03;5074216;28;20032;-62
2022/04/12 08:43:37;;;;;;;7.00;3.13;;;;;;;16.74;43.26;100850.09;5074274;28;20066;-62
2022/04/12 08:46:03;;;;;;;7.20;3.20;;;;;;;16.81;42.98;100841.00;5075369;28;20029;-62
2022/04/12 08:48:29;;;;;;;6.63;3.10;;;;;;;16.88;43.28;100834.56;5074690;28;20052;-63
2022/04/12 08:50:54;;;;;;;6.00;3.38;;;;;;;16.83;44.78;100834.72;5074145;28;20119;-62
2022/04/12 08:53:21;;;;;;;5.90;2.80;;;;;;;16.93;43.12;100828.16;5074762;28;20029;-62
2022/04/12 08:55:47;;;;;;;5.15;2.80;;;;;;;17.46;42.83;100821.59;5054723;28;20055;-63
2022/04/12 08:58:12;;;;;;;4.93;2.70;;;;;;;18.10;40.35;100825.00;5070752;28;20111;-62
2022/04/12 09:00:37;;;;;;;4.82;2.90;;;;;;;18.11;40.47;100828.50;5074545;28;20436;-62
2022/04/12 09:03:04;;;;;;;5.28;3.03;;;;;;;18.02;40.76;100829.75;5074701;28;20029;-62
2022/04/12 09:05:32;;;;;;;5.78;2.63;;;;;;;17.87;40.43;100833.06;5074494;28;20028;-62
2022/04/12 09:07:58;;;;;;;8.43;3.20;;;;;;;17.72;41.50;100838.13;5074566;28;20028;-63
2022/04/12 09:10:34;;;;;;;5.35;2.75;;;;;;;17.55;42.82;100837.94;5074333;28;20044;-63
2022/04/12 09:13:18;;;;;;;6.03;2.63;;;;;;;17.36;42.32;100808.75;5074733;28;20036;-63
2022/04/12 09:15:45;;;;;;;7.28;3.10;;;;;;;17.39;42.53;100828.94;5055306;28;20029;-62
2022/04/12 09:18:11;;;;;;;5.50;2.70;;;;;;;17.35;42.43;100812.31;5054427;28;20033;-62
2022/04/12 09:20:37;;;;;;;6.38;3.20;;;;;;;17.38;43.85;100806.03;5054402;28;20035;-63
2022/04/12 09:23:13;;;;;;;7.32;3.58;;;;;;;17.47;42.82;100804.81;5054734;28;20025;-62
2022/04/12 09:25:52;;;;;;;6.13;2.85;;;;;;;17.63;43.77;100800.59;5054758;28;20041;-62
2022/04/12 09:28:17;;;;;;;4.63;3.00;;;;;;;17.74;41.88;100793.06;5054472;28;20036;-62
2022/04/12 09:30:42;;;;;;;8.30;3.30;;;;;;;17.72;41.25;100801.06;5053871;28;20427;-62
2022/04/12 09:33:07;;;;;;;6.95;3.05;;;;;;;17.68;41.37;100790.66;5054502;28;20048;-63
2022/04/12 09:35:33;;;;;;;7.50;2.83;;;;;;;17.86;42.48;100791.66;5054234;28;20037;-62
2022/04/12 09:37:58;;;;;;;8.60;3.30;;;;;;;18.04;42.93;100791.69;5054101;28;20318;-62
2022/04/12 09:40:25;;;;;;;5.13;3.43;;;;;;;18.17;41.72;100794.66;5054061;28;20044;-62
2022/04/12 09:42:52;;;;;;;7.78;3.20;;;;;;;18.24;41.40;100801.38;5054319;28;20363;-62
2022/04/12 09:45:23;;;;;;;5.25;2.72;;;;;;;18.28;42.15;100800.31;5054326;28;20040;-63
2022/04/12 09:47:51;;;;;;;6.10;3.00;;;;;;;18.40;42.64;100804.19;5054421;28;20028;-63
2022/04/12 09:50:20;;;;;;;7.15;3.22;;;;;;;18.31;41.48;100800.19;5053695;28;20474;-63
2022/04/12 09:52:59;;;;;;;8.63;3.33;;;;;;;18.36;42.46;100802.59;5055150;28;20436;-62
2022/04/12 09:55:37;;;;;;;6.80;3.25;;;;;;;18.54;41.74;100803.53;5057637;28;20040;-62
2022/04/12 09:58:05;;;;;;;7.22;2.92;;;;;;;18.63;40.58;100796.06;5057750;28;20367;-63
2022/04/12 10:00:32;;;;;;;5.55;2.58;;;;;;;18.60;40.98;100801.50;5057914;28;20033;-63
2022/04/12 10:02:59;;;;;;;8.43;2.95;;;;;;;18.66;41.51;100800.34;5058170;28;20063;-62
2022/04/12 10:05:25;;;;;;;5.22;3.08;;;;;;;18.56;40.57;100788.41;5057400;28;20025;-62
2022/04/12 10:07:51;;;;;;;9.15;2.80;;;;;;;18.61;41.56;100776.72;5057830;28;20333;-61
2022/04/12 10:10:19;;;;;;;5.32;2.90;;;;;;;18.68;41.28;100780.81;5057744;28;20040;-62
2022/04/12 10:12:46;;;;;;;6.75;3.17;;;;;;;18.69;40.59;100769.28;5057888;28;20052;-62
2022/04/12 10:15:12;;;;;;;7.07;3.10;;;;;;;19.06;42.33;100756.84;5057634;28;20115;-61
2022/04/12 10:17:38;;;;;;;6.25;3.17;;;;;;;19.42;41.30;100760.28;5057470;28;20336;-61
2022/04/12 10:20:04;;;;;;;7.40;3.03;;;;;;;19.58;40.74;100770.13;5057657;28;20130;-62
2022/04/12 10:22:30;;;;;;;6.85;3.42;;;;;;;19.76;40.67;100761.22;5057832;28;20443;-64
2022/04/12 10:24:56;;;;;;;8.93;3.38;;;;;;;19.65;38.92;100767.09;5057252;28;20036;-61
2022/04/12 10:27:22;;;;;;;10.27;3.35;;;;;;;19.59;39.66;100762.09;5057445;28;20037;-62
2022/04/12 10:30:15;;;;;;;5.82;3.33;;;;;;;19.77;39.67;100754.97;5057051;28;20076;-62
2022/04/12 10:33:00;;;;;;;4.68;2.70;;;;;;;19.79;40.58;100745.97;5056816;28;20041;-62
2022/04/12 10:35:26;;;;;;;6.85;3.13;;;;;;;19.86;38.63;100737.69;5057440;28;20333;-62
2022/04/12 10:37:56;;;;;;;8.10;3.10;;;;;;;19.88;39.80;100738.47;5065490;28;20044;-61
2022/04/12 10:40:23;;;;;;;5.70;3.20;;;;;;;19.91;39.08;100738.31;5077275;28;20033;-62
2022/04/12 10:42:49;;;;;;;5.22;3.55;;;;;;;19.91;39.07;100746.28;5076750;28;20044;-62
2022/04/12 10:45:14;;;;;;;7.35;3.38;;;;;;;19.94;38.81;100736.34;5076968;28;20037;-63
2022/04/12 10:47:43;;;;;;;8.83;3.33;;;;;;;19.99;38.70;100744.91;5076946;28;20439;-62
2022/04/12 10:50:12;;;;;;;6.80;3.03;;;;;;;19.88;37.94;100746.44;5077109;28;20278;-62
2022/04/12 10:52:44;;;;;;;8.27;3.00;;;;;;;19.99;38.13;100744.06;5076784;28;20039;-61
2022/04/12 10:55:15;;;;;;;9.20;3.10;;;;;;;19.99;38.82;100736.94;5076931;28;20347;-62
2022/04/12 10:57:41;;;;;;;5.27;2.93;;;;;;;19.91;38.58;100731.22;5076592;28;20442;-63
2022/04/12 11:00:12;;;;;;;5.55;3.30;;;;;;;19.90;38.96;100734.81;5076768;28;20108;-64
2022/04/12 11:02:40;;;;;;;6.47;3.42;;;;;;;19.86;38.36;100727.06;5076859;28;20024;-62
2022/04/12 11:05:07;;;;;;;7.07;2.97;;;;;;;19.86;38.61;100711.16;5076069;28;20039;-62
2022/04/12 11:07:35;;;;;;;6.80;2.75;;;;;;;20.17;39.09;100729.78;5076709;28;20032;-62
2022/04/12 11:10:13;;;;;;;5.05;2.72;;;;;;;20.42;39.04;100732.84;5076795;28;20064;-61
2022/04/12 11:12:42;;;;;;;4.55;2.63;;;;;;;20.69;38.09;100743.72;5076579;28;20036;-61
2022/04/12 11:15:28;;;;;;;6.32;3.33;;;;;;;21.01;37.69;100741.84;5076700;28;20046;-63
2022/04/12 11:18:14;;;;;;;6.85;2.92;;;;;;;20.87;37.00;100741.78;5076257;28;20029;-62
2022/04/12 11:20:43;;;;;;;5.80;2.00;;;;;;;20.60;37.21;100738.06;5076304;28;20024;-62
2022/04/12 11:23:11;;;;;;;6.15;3.08;;;;;;;20.46;37.20;100729.03;5076265;28;20039;-62
2022/04/12 11:25:50;;;;;;;8.35;2.80;;;;;;;20.50;38.29;100722.63;5076340;28;20056;-64